createdAt,value
2022-10-22T00:00:33.105Z,5.45
2022-10-22T00:03:02.014Z,5.36
2022-10-22T00:08:10.491Z,5.33
2022-10-22T00:10:39.159Z,5.36
2022-10-22T00:13:06.380Z,5.20
2022-10-22T00:20:59.748Z,5.44
2022-10-22T00:23:29.392Z,5.50
2022-10-22T00:28:39.847Z,5.34
2022-10-22T00:31:10.517Z,5.45
2022-10-22T00:36:23.335Z,5.51
2022-10-22T00:38:52.719Z,5.44
2022-10-22T00:44:06.051Z,5.41
2022-10-22T00:49:17.651Z,5.28
2022-10-22T00:51:45.483Z,5.34
2022-10-22T00:54:13.226Z,5.28
2022-10-22T00:59:23.532Z,5.41
2022-10-22T01:01:54.229Z,5.31
2022-10-22T01:07:07.707Z,5.29
2022-10-22T01:13:02.757Z,5.48
2022-10-22T01:15:51.370Z,5.33
2022-10-22T01:18:31.745Z,5.45
2022-10-22T01:21:18.454Z,5.42
2022-10-22T01:24:22.125Z,5.48
2022-10-22T01:32:30.350Z,5.43
2022-10-22T01:37:53.061Z,5.44
2022-10-22T01:45:53.196Z,5.53
2022-10-22T01:48:43.329Z,5.57
2022-10-22T01:51:30.026Z,5.33
2022-10-22T01:54:22.018Z,5.28
2022-10-22T01:57:15.998Z,5.49
2022-10-22T02:00:12.493Z,5.45
2022-10-22T02:16:41.190Z,5.33
2022-10-22T02:19:33.523Z,5.28
2022-10-22T02:27:44.249Z,5.24
2022-10-22T02:36:05.615Z,5.21
2022-10-22T02:38:35.886Z,5.20
2022-10-22T02:44:03.534Z,5.38
2022-10-22T02:51:54.771Z,5.28
2022-10-22T03:07:49.918Z,5.34
2022-10-22T03:13:07.276Z,5.43
2022-10-22T03:15:36.578Z,5.45
2022-10-22T03:18:12.673Z,5.21
2022-10-22T03:31:25.067Z,5.24
2022-10-22T03:36:36.487Z,5.24
2022-10-22T03:44:39.156Z,5.40
2022-10-22T04:00:41.617Z,5.37
2022-10-22T04:03:08.995Z,5.29
2022-10-22T04:05:37.255Z,5.38
2022-10-22T04:08:08.917Z,5.33
2022-10-22T04:19:15.333Z,5.30
2022-10-22T04:26:44.034Z,5.37
2022-10-22T04:29:15.159Z,5.43
2022-10-22T04:37:53.517Z,5.45
2022-10-22T04:40:20.968Z,5.48
2022-10-22T04:42:47.948Z,5.47
2022-10-22T04:45:15.889Z,5.48
2022-10-22T04:47:43.086Z,5.49
2022-10-22T04:50:10.496Z,5.48
2022-10-22T04:52:37.290Z,5.48
2022-10-22T04:55:04.732Z,5.45
2022-10-22T04:57:32.060Z,5.31
2022-10-22T04:59:59.460Z,5.38
2022-10-22T05:02:27.474Z,5.40
2022-10-22T05:04:54.443Z,5.44
2022-10-22T05:07:21.470Z,5.49
2022-10-22T05:09:48.387Z,5.47
2022-10-22T05:12:15.273Z,5.49
2022-10-22T05:14:44.694Z,5.44
2022-10-22T05:17:12.207Z,5.51
2022-10-22T05:19:39.265Z,5.53
2022-10-22T05:22:06.130Z,5.53
2022-10-22T05:24:35.460Z,5.48
2022-10-22T05:27:02.998Z,5.50
2022-10-22T05:29:30.092Z,5.53
2022-10-22T05:31:56.909Z,5.53
2022-10-22T05:34:23.929Z,5.56
2022-10-22T05:36:50.770Z,5.53
2022-10-22T05:39:18.186Z,5.56
2022-10-22T05:41:45.376Z,5.56
2022-10-22T05:44:13.380Z,5.62
2022-10-22T05:46:40.957Z,5.70
2022-10-22T05:49:08.670Z,5.76
2022-10-22T05:51:37.569Z,5.82
2022-10-22T05:54:07.572Z,5.83
2022-10-22T05:56:35.633Z,5.88
2022-10-22T06:01:38.388Z,5.84
2022-10-22T06:04:08.170Z,5.87
2022-10-22T06:06:56.886Z,5.88
2022-10-22T06:09:27.772Z,5.95
2022-10-22T06:11:58.048Z,5.96
2022-10-22T06:14:36.436Z,5.91
2022-10-22T06:19:46.842Z,5.91
2022-10-22T06:22:14.033Z,5.85
2022-10-22T06:24:47.840Z,5.95
2022-10-22T06:27:15.940Z,5.86
2022-10-22T06:32:24.109Z,5.98
2022-10-22T06:34:51.460Z,5.98
2022-10-22T06:37:18.546Z,5.85
2022-10-22T06:39:45.673Z,5.80
2022-10-22T06:42:13.451Z,5.95
2022-10-22T06:44:41.224Z,5.93
2022-10-22T06:47:08.272Z,6.01
2022-10-22T06:49:35.363Z,6.11
2022-10-22T06:52:02.595Z,6.04
2022-10-22T06:54:29.682Z,6.15
2022-10-22T06:56:58.402Z,6.30
2022-10-22T06:59:25.681Z,6.22
2022-10-22T07:01:53.355Z,6.31
2022-10-22T07:04:20.584Z,6.37
2022-10-22T07:06:47.623Z,6.62
2022-10-22T07:09:15.400Z,6.57
2022-10-22T07:11:49.968Z,6.55
2022-10-22T07:14:27.141Z,6.64
2022-10-22T07:19:35.677Z,6.65
2022-10-22T07:22:03.115Z,6.59
2022-10-22T07:24:30.328Z,6.64
2022-10-22T07:26:57.856Z,6.54
2022-10-22T07:29:26.146Z,6.41
2022-10-22T07:31:54.699Z,6.48
2022-10-22T07:37:04.002Z,6.57
2022-10-22T07:44:54.633Z,6.49
2022-10-22T07:50:09.850Z,6.70
2022-10-22T07:52:42.854Z,6.78
2022-10-22T07:55:19.396Z,6.72
2022-10-22T08:00:29.899Z,6.89
2022-10-22T08:02:58.933Z,6.84
2022-10-22T08:05:30.447Z,6.71
2022-10-22T08:07:58.103Z,6.75
2022-10-22T08:10:25.232Z,6.66
2022-10-22T08:12:52.965Z,6.70
2022-10-22T08:15:28.872Z,6.67
2022-10-22T08:17:57.090Z,6.60
2022-10-22T08:20:24.770Z,6.60
2022-10-22T08:22:53.198Z,6.59
2022-10-22T08:25:20.507Z,6.50
2022-10-22T08:30:30.620Z,6.17
2022-10-22T08:33:00.081Z,6.42
2022-10-22T08:35:28.057Z,6.50
2022-10-22T08:37:55.412Z,6.59
2022-10-22T08:40:35.152Z,6.81
2022-10-22T08:43:27.443Z,6.73
2022-10-22T08:46:04.128Z,6.57
2022-10-22T08:48:49.207Z,6.64
2022-10-22T08:51:21.223Z,6.64
2022-10-22T08:54:02.463Z,6.55
2022-10-22T08:56:31.658Z,6.46
2022-10-22T08:59:06.339Z,6.43
2022-10-22T09:01:44.961Z,6.21
2022-10-22T09:04:31.103Z,6.42
2022-10-22T09:07:00.370Z,6.49
2022-10-22T09:12:20.304Z,6.42
2022-10-22T09:14:48.323Z,6.53
2022-10-22T09:17:44.327Z,6.63
2022-10-22T09:20:29.157Z,6.42
2022-10-22T09:23:17.014Z,6.42
2022-10-22T09:25:48.099Z,6.39
2022-10-22T09:28:16.209Z,6.31
2022-10-22T09:30:44.664Z,6.37
2022-10-22T09:36:08.661Z,6.58
2022-10-22T09:38:51.226Z,6.69
2022-10-22T09:41:27.703Z,6.71
2022-10-22T09:43:55.739Z,6.61
2022-10-22T09:49:19.642Z,6.66
2022-10-22T09:51:57.107Z,6.58
2022-10-22T09:54:28.117Z,6.66
2022-10-22T09:57:16.835Z,6.83
2022-10-22T09:59:49.019Z,6.82
2022-10-22T10:02:37.423Z,6.83
2022-10-22T10:05:14.342Z,6.97
2022-10-22T10:07:41.605Z,6.87
2022-10-22T10:10:37.931Z,6.90
2022-10-22T10:13:17.456Z,7.20
2022-10-22T10:16:06.258Z,7.12
2022-10-22T10:21:29.091Z,7.33
2022-10-22T10:24:15.441Z,7.32
2022-10-22T10:26:52.476Z,6.99
2022-10-22T10:29:31.826Z,7.40
2022-10-22T10:35:40.433Z,7.38
2022-10-22T10:38:45.262Z,7.41
2022-10-22T10:41:22.938Z,7.43
2022-10-22T10:44:11.548Z,7.47
2022-10-22T10:46:38.822Z,7.46
2022-10-22T10:49:20.459Z,7.35
2022-10-22T10:51:52.017Z,7.31
2022-10-22T10:54:42.197Z,7.46
2022-10-22T10:57:47.517Z,7.36
2022-10-22T11:00:18.669Z,7.19
2022-10-22T11:03:23.427Z,7.41
2022-10-22T11:09:22.515Z,7.18
2022-10-22T11:11:56.263Z,7.25
2022-10-22T11:14:40.175Z,7.03
2022-10-22T11:17:24.379Z,6.96
2022-10-22T11:20:47.463Z,7.11
2022-10-22T11:23:40.520Z,7.03
2022-10-22T11:26:15.772Z,6.96
2022-10-22T11:28:48.855Z,6.90
2022-10-22T11:31:17.789Z,7.02
2022-10-22T11:34:31.967Z,7.04
2022-10-22T11:37:00.411Z,7.01
2022-10-22T11:39:39.468Z,7.00
2022-10-22T11:42:11.475Z,7.10
2022-10-22T11:45:26.939Z,7.15
2022-10-22T11:47:59.568Z,7.18
2022-10-22T11:50:44.396Z,7.05
2022-10-22T11:53:14.764Z,7.07
2022-10-22T11:55:55.568Z,7.06
2022-10-22T11:58:28.441Z,7.04
2022-10-22T12:01:02.781Z,7.07
2022-10-22T12:03:32.964Z,7.10
2022-10-22T12:06:20.918Z,7.08
2022-10-22T12:08:58.020Z,7.21
2022-10-22T12:11:38.807Z,7.30
2022-10-22T12:14:31.009Z,7.32
2022-10-22T12:17:03.819Z,7.32
2022-10-22T12:19:49.555Z,7.28
2022-10-22T12:22:39.443Z,7.32
2022-10-22T12:25:20.288Z,7.31
2022-10-22T12:27:55.660Z,7.33
2022-10-22T12:30:25.897Z,7.28
2022-10-22T12:33:00.743Z,7.15
2022-10-22T12:35:31.494Z,7.18
2022-10-22T12:38:03.117Z,7.14
2022-10-22T12:40:35.076Z,7.22
2022-10-22T12:43:11.567Z,7.14
2022-10-22T12:45:45.225Z,7.25
2022-10-22T12:48:20.094Z,7.19
2022-10-22T12:50:54.059Z,7.17
2022-10-22T12:53:30.176Z,7.24
2022-10-22T12:56:04.505Z,7.12
2022-10-22T12:58:41.561Z,7.19
2022-10-22T13:01:14.586Z,7.14
2022-10-22T13:03:46.543Z,7.04
2022-10-22T13:08:59.959Z,6.99
2022-10-22T13:11:50.229Z,7.03
2022-10-22T13:14:25.443Z,7.05
2022-10-22T13:17:23.985Z,7.07
2022-10-22T13:19:55.201Z,7.07
2022-10-22T13:22:34.291Z,6.84
2022-10-22T13:25:15.941Z,7.01
2022-10-22T13:28:15.103Z,6.95
2022-10-22T13:30:57.764Z,6.91
2022-10-22T13:33:44.004Z,6.93
2022-10-22T13:36:17.802Z,6.79
2022-10-22T13:38:46.093Z,6.97
2022-10-22T13:41:31.336Z,6.96
2022-10-22T13:43:59.257Z,6.97
2022-10-22T13:46:27.611Z,6.94
2022-10-22T13:49:00.508Z,6.84
2022-10-22T13:54:21.927Z,6.86
2022-10-22T13:56:53.891Z,6.84
2022-10-22T13:59:25.377Z,6.87
2022-10-22T14:01:53.327Z,6.76
2022-10-22T14:04:20.702Z,6.81
2022-10-22T14:06:48.371Z,6.78
2022-10-22T14:09:16.661Z,6.68
2022-10-22T14:11:44.192Z,6.73
2022-10-22T14:14:16.120Z,6.66
2022-10-22T14:16:43.834Z,6.69
2022-10-22T14:19:19.397Z,6.74
2022-10-22T14:21:47.247Z,6.72
2022-10-22T14:24:15.292Z,6.63
2022-10-22T14:26:43.287Z,6.65
2022-10-22T14:29:19.983Z,6.69
2022-10-22T14:31:47.396Z,6.62
2022-10-22T14:34:16.170Z,6.76
2022-10-22T14:36:45.279Z,6.77
2022-10-22T14:41:55.806Z,6.78
2022-10-22T14:44:24.812Z,6.63
2022-10-22T14:49:41.721Z,6.79
2022-10-22T14:52:11.774Z,6.76
2022-10-22T14:54:41.411Z,6.79
2022-10-22T14:57:11.148Z,6.65
2022-10-22T14:59:38.370Z,6.67
2022-10-22T15:02:05.417Z,6.62
2022-10-22T15:04:35.005Z,6.62
2022-10-22T15:09:51.855Z,6.58
2022-10-22T15:12:21.228Z,6.57
2022-10-22T15:14:49.168Z,6.51
2022-10-22T15:17:18.705Z,6.57
2022-10-22T15:19:46.318Z,6.65
2022-10-22T15:22:15.643Z,6.59
2022-10-22T15:24:45.355Z,6.67
2022-10-22T15:27:18.766Z,6.54
2022-10-22T15:29:47.769Z,6.67
2022-10-22T15:34:58.843Z,6.62
2022-10-22T15:37:26.624Z,6.51
2022-10-22T15:39:58.313Z,6.48
2022-10-22T15:42:25.544Z,6.56
2022-10-22T15:47:41.109Z,6.47
2022-10-22T15:50:09.151Z,6.52
2022-10-22T15:52:40.687Z,6.48
2022-10-22T15:57:45.695Z,6.49
2022-10-22T16:00:25.008Z,6.63
2022-10-22T16:02:58.620Z,6.49
2022-10-22T16:05:27.614Z,6.49
2022-10-22T16:07:56.727Z,6.55
2022-10-22T16:10:25.192Z,6.52
2022-10-22T16:12:54.634Z,6.49
2022-10-22T16:15:21.918Z,6.37
2022-10-22T16:17:49.279Z,6.43
2022-10-22T16:20:21.147Z,6.51
2022-10-22T16:22:50.618Z,6.57
2022-10-22T16:25:17.691Z,6.51
2022-10-22T16:27:45.095Z,6.47
2022-10-22T16:30:13.514Z,6.58
2022-10-22T16:35:25.124Z,6.57
2022-10-22T16:37:52.477Z,6.50
2022-10-22T16:40:20.158Z,6.51
2022-10-22T16:42:48.025Z,6.53
2022-10-22T16:47:57.327Z,6.49
2022-10-22T16:50:24.937Z,6.36
2022-10-22T16:52:54.591Z,6.40
2022-10-22T16:55:22.424Z,6.40
2022-10-22T16:57:54.154Z,6.28
2022-10-22T17:00:22.385Z,6.41
2022-10-22T17:10:58.984Z,6.37
2022-10-22T17:13:27.259Z,6.28
2022-10-22T17:16:02.000Z,6.22
2022-10-22T17:18:29.892Z,6.27
2022-10-22T17:21:00.610Z,6.28
2022-10-22T17:23:31.559Z,6.33
2022-10-22T17:26:01.772Z,6.34
2022-10-22T17:28:30.118Z,6.31
2022-10-22T17:31:11.963Z,6.29
2022-10-22T17:33:39.295Z,6.17
2022-10-22T17:36:13.104Z,6.18
2022-10-22T17:41:31.771Z,6.09
2022-10-22T17:44:05.090Z,6.08
2022-10-22T17:46:33.904Z,6.22
2022-10-22T17:49:07.276Z,6.18
2022-10-22T17:51:54.707Z,6.04
2022-10-22T17:54:21.939Z,6.09
2022-10-22T17:59:30.902Z,6.14
2022-10-22T18:02:02.256Z,6.11
2022-10-22T18:04:31.839Z,6.17
2022-10-22T18:07:01.744Z,6.17
2022-10-22T18:09:29.671Z,6.13
2022-10-22T18:11:57.135Z,6.12
2022-10-22T18:14:25.848Z,6.16
2022-10-22T18:16:53.334Z,6.15
2022-10-22T18:19:23.415Z,6.03
2022-10-22T18:21:50.736Z,6.03
2022-10-22T18:24:18.918Z,6.00
2022-10-22T18:26:47.294Z,6.00
2022-10-22T18:29:20.197Z,5.95
2022-10-22T18:31:50.390Z,5.96
2022-10-22T18:36:59.177Z,5.93
2022-10-22T18:39:27.613Z,5.81
2022-10-22T18:50:00.557Z,5.82
2022-10-22T18:52:32.469Z,5.84
2022-10-22T18:55:08.873Z,5.81
2022-10-22T18:57:48.637Z,5.90
2022-10-22T19:00:17.539Z,5.90
2022-10-22T19:02:44.967Z,5.89
2022-10-22T19:07:57.811Z,5.93
2022-10-22T19:10:26.046Z,5.89
2022-10-22T19:12:55.593Z,5.85
2022-10-22T19:18:08.227Z,5.97
2022-10-22T19:20:38.078Z,5.73
2022-10-22T19:23:06.643Z,5.84
2022-10-22T19:25:35.582Z,5.78
2022-10-22T19:28:08.191Z,5.77
2022-10-22T19:44:14.772Z,5.84
2022-10-22T19:46:43.352Z,5.77
2022-10-22T19:49:22.966Z,5.73
2022-10-22T19:51:52.737Z,5.73
2022-10-22T19:54:30.193Z,5.82
2022-10-22T20:02:25.227Z,5.57
2022-10-22T20:04:52.991Z,5.65
2022-10-22T20:10:01.646Z,5.55
2022-10-22T20:20:40.908Z,5.70
2022-10-22T20:25:58.749Z,5.76
2022-10-22T20:31:12.300Z,5.72
2022-10-22T20:36:37.231Z,5.79
2022-10-22T20:47:14.066Z,5.64
2022-10-22T20:55:08.293Z,5.62
2022-10-22T20:57:38.836Z,5.76
2022-10-22T21:02:48.849Z,5.78
2022-10-22T21:13:29.568Z,5.58
2022-10-22T21:16:05.750Z,5.55
2022-10-22T21:21:17.341Z,5.59
2022-10-22T21:23:45.530Z,5.53
2022-10-22T21:26:15.254Z,5.60
2022-10-22T21:34:08.087Z,5.72
2022-10-22T21:36:35.834Z,5.66
2022-10-22T21:39:06.170Z,5.57
2022-10-22T21:41:34.060Z,5.69
2022-10-22T21:44:01.738Z,5.64
2022-10-22T21:46:29.530Z,5.68
2022-10-22T21:49:03.761Z,5.52
2022-10-22T21:54:14.755Z,5.60
2022-10-22T21:56:50.807Z,5.50
2022-10-22T21:59:19.061Z,5.63
2022-10-22T22:01:48.619Z,5.59
2022-10-22T22:04:16.209Z,5.53
2022-10-22T22:06:44.389Z,5.66
2022-10-22T22:09:12.666Z,5.44
2022-10-22T22:11:41.022Z,5.37
2022-10-22T22:14:08.818Z,5.57
2022-10-22T22:16:36.912Z,5.46
2022-10-22T22:19:15.708Z,5.35
2022-10-22T22:21:45.177Z,5.50
2022-10-22T22:24:13.681Z,5.51
2022-10-22T22:26:41.521Z,5.37
2022-10-22T22:29:08.692Z,5.35
2022-10-22T22:31:36.602Z,5.53
2022-10-22T22:36:51.918Z,5.41
2022-10-22T22:39:25.020Z,5.39
2022-10-22T22:41:53.726Z,5.46
2022-10-22T22:44:21.131Z,5.48
2022-10-22T22:46:50.531Z,5.56
2022-10-22T22:49:18.121Z,5.40
2022-10-22T22:54:26.747Z,5.53
2022-10-22T23:04:58.762Z,5.45
2022-10-22T23:10:08.053Z,5.52
2022-10-22T23:12:44.163Z,5.55
2022-10-22T23:15:14.564Z,5.49
2022-10-22T23:28:36.573Z,5.39
2022-10-22T23:39:21.395Z,5.32
2022-10-22T23:58:02.349Z,5.36
